Time;durP1;ratioP1;P1;durP2;ratioP2;P2;SDS_P1;SDS_P2;PMS_P1;PMS_P2;Temp;Humidity;BMP_temperature;BMP_pressure;BME280_temperature;BME280_humidity;BME280_pressure;Samples;Min_cycle;Max_cycle;Signal;HPM_P1;HPM_P2
2023/09/05 00:00:44;;;;;;;26.35;9.57;;;;;;;;;;5002185;28;20477;-52
2023/09/05 00:03:39;;;;;;;28.10;10.95;;;;;;;;;;5000429;28;20144;-52
2023/09/05 00:06:26;;;;;;;27.08;9.95;;;;;;;;;;5000275;28;22944;-51
2023/09/05 00:09:20;;;;;;;18.67;9.85;;;;;;;;;;5001941;28;20108;-53
2023/09/05 00:12:07;;;;;;;29.60;10.15;;;;;;;;;;5002366;28;20457;-62
2023/09/05 00:15:02;;;;;;;28.20;9.82;;;;;;;;;;5000969;28;20108;-61
2023/09/05 00:17:50;;;;;;;28.20;10.68;;;;;;;;;;5001347;28;20478;-61
2023/09/05 00:20:26;;;;;;;23.98;10.95;;;;;;;;;;5000357;28;20061;-57
2023/09/05 00:23:00;;;;;;;29.17;10.88;;;;;;;;;;5002891;28;20046;-61
2023/09/05 00:25:27;;;;;;;27.85;10.80;;;;;;;;;;5003333;28;20061;-48
2023/09/05 00:28:21;;;;;;;29.85;10.10;;;;;;;;;;5005368;28;20112;-49
2023/09/05 00:31:15;;;;;;;31.00;11.07;;;;;;;;;;5005838;28;20058;-50
2023/09/05 00:34:09;;;;;;;28.52;10.98;;;;;;;;;;5002290;28;20112;-49
2023/09/05 00:37:04;;;;;;;20.73;10.48;;;;;;;;;;5009292;28;20049;-51
2023/09/05 00:39:58;;;;;;;21.90;10.43;;;;;;;;;;5003089;28;20050;-59
2023/09/05 00:42:45;;;;;;;24.73;9.90;;;;;;;;;;5005581;28;20586;-59
2023/09/05 00:45:42;;;;;;;24.83;11.60;;;;;;;;;;5003646;28;20061;-59
2023/09/05 00:48:29;;;;;;;20.50;10.45;;;;;;;;;;5003942;28;20049;-59
2023/09/05 00:51:25;;;;;;;27.88;11.18;;;;;;;;;;5005094;28;20045;-59
2023/09/05 00:54:12;;;;;;;30.58;11.23;;;;;;;;;;5003183;28;20069;-62
2023/09/05 00:57:08;;;;;;;23.27;9.57;;;;;;;;;;4998295;28;20132;-62
2023/09/05 01:00:01;;;;;;;24.65;9.73;;;;;;;;;;5023887;28;21030;-62
2023/09/05 01:02:55;;;;;;;26.83;10.88;;;;;;;;;;5026494;28;20076;-62
2023/09/05 01:05:44;;;;;;;29.85;10.65;;;;;;;;;;5025234;28;20057;-62
2023/09/05 01:08:32;;;;;;;22.50;9.80;;;;;;;;;;5026970;28;20107;-50
2023/09/05 01:11:00;;;;;;;20.23;10.23;;;;;;;;;;5023454;28;20060;-47
2023/09/05 01:13:53;;;;;;;29.85;10.00;;;;;;;;;;5026706;28;20057;-50
2023/09/05 01:16:48;;;;;;;24.00;10.82;;;;;;;;;;5023593;28;20396;-48
2023/09/05 01:19:42;;;;;;;28.13;12.05;;;;;;;;;;5021088;28;20155;-60
2023/09/05 01:22:36;;;;;;;39.17;12.13;;;;;;;;;;5020947;28;20190;-59
2023/09/05 01:25:30;;;;;;;30.80;11.43;;;;;;;;;;5018054;28;20049;-59
2023/09/05 01:28:18;;;;;;;29.65;11.65;;;;;;;;;;5023932;28;20049;-59
2023/09/05 01:31:11;;;;;;;25.95;10.38;;;;;;;;;;5025872;28;20102;-59
2023/09/05 01:33:59;;;;;;;26.35;11.38;;;;;;;;;;5024265;28;20057;-59
2023/09/05 01:36:53;;;;;;;28.92;12.07;;;;;;;;;;5023810;28;20087;-60
2023/09/05 01:39:41;;;;;;;26.02;11.98;;;;;;;;;;5022981;28;20045;-59
2023/09/05 01:42:34;;;;;;;28.70;12.57;;;;;;;;;;5022492;28;20056;-59
2023/09/05 01:45:21;;;;;;;23.77;11.32;;;;;;;;;;5025522;28;20061;-60
2023/09/05 01:48:14;;;;;;;29.23;11.65;;;;;;;;;;5024654;28;20067;-60
2023/09/05 01:51:02;;;;;;;24.77;10.88;;;;;;;;;;5025990;28;20061;-60
2023/09/05 01:53:55;;;;;;;30.90;11.63;;;;;;;;;;5022759;28;20147;-60
2023/09/05 01:56:43;;;;;;;31.80;11.98;;;;;;;;;;5024259;28;20485;-59
2023/09/05 01:59:43;;;;;;;22.65;9.95;;;;;;;;;;5008800;28;20571;-59
2023/09/05 02:02:31;;;;;;;28.80;11.43;;;;;;;;;;5003015;28;20069;-60
2023/09/05 02:05:25;;;;;;;29.17;11.80;;;;;;;;;;5002561;28;20064;-51
2023/09/05 02:08:12;;;;;;;25.52;11.90;;;;;;;;;;5003653;28;20049;-59
2023/09/05 02:11:09;;;;;;;28.35;10.70;;;;;;;;;;5004561;28;20612;-59
2023/09/05 02:13:54;;;;;;;30.23;12.18;;;;;;;;;;5003179;28;20108;-59
2023/09/05 02:16:47;;;;;;;22.73;11.52;;;;;;;;;;5003681;28;20117;-59
2023/09/05 02:19:35;;;;;;;25.52;10.82;;;;;;;;;;5003161;28;20152;-60
2023/09/05 02:22:31;;;;;;;23.52;11.15;;;;;;;;;;5005383;28;20473;-59
2023/09/05 02:25:19;;;;;;;30.48;11.20;;;;;;;;;;5002190;28;20450;-48
2023/09/05 02:28:19;;;;;;;31.25;11.23;;;;;;;;;;5002929;28;20085;-50
2023/09/05 02:31:07;;;;;;;27.75;11.18;;;;;;;;;;5005665;28;20678;-49
2023/09/05 02:34:01;;;;;;;25.63;11.15;;;;;;;;;;5004316;28;20128;-51
2023/09/05 02:36:48;;;;;;;29.23;12.25;;;;;;;;;;5001997;28;20101;-59
2023/09/05 02:39:41;;;;;;;27.27;11.07;;;;;;;;;;5002956;28;20045;-59
2023/09/05 02:42:30;;;;;;;28.67;10.55;;;;;;;;;;5003513;28;20112;-59
2023/09/05 02:45:24;;;;;;;27.77;11.60;;;;;;;;;;5005598;28;20053;-58
2023/09/05 02:48:11;;;;;;;22.70;11.55;;;;;;;;;;5001667;28;20062;-58
2023/09/05 02:51:06;;;;;;;25.48;11.30;;;;;;;;;;5003027;28;20042;-56
2023/09/05 02:53:56;;;;;;;34.28;11.77;;;;;;;;;;5004115;28;20049;-56
2023/09/05 02:56:48;;;;;;;27.80;11.57;;;;;;;;;;5002747;28;20054;-58
2023/09/05 02:59:41;;;;;;;31.38;10.85;;;;;;;;;;5005621;28;20053;-54
2023/09/05 03:02:37;;;;;;;27.88;12.45;;;;;;;;;;5005940;28;20049;-52
2023/09/05 03:05:23;;;;;;;32.70;13.10;;;;;;;;;;5002340;28;20068;-48
2023/09/05 03:08:16;;;;;;;23.63;11.57;;;;;;;;;;5002178;28;20556;-47
2023/09/05 03:11:04;;;;;;;27.35;12.38;;;;;;;;;;5002851;28;20085;-51
2023/09/05 03:13:58;;;;;;;30.20;12.73;;;;;;;;;;5001602;28;20062;-52
2023/09/05 03:16:45;;;;;;;23.63;12.07;;;;;;;;;;4999201;28;20058;-49
2023/09/05 03:19:39;;;;;;;35.10;13.90;;;;;;;;;;5003256;28;20109;-59
2023/09/05 03:22:33;;;;;;;31.70;14.18;;;;;;;;;;5003439;28;20604;-59
2023/09/05 03:25:27;;;;;;;27.85;14.68;;;;;;;;;;5003202;28;20060;-59
2023/09/05 03:28:22;;;;;;;36.40;13.43;;;;;;;;;;5004208;28;20085;-59
2023/09/05 03:31:09;;;;;;;26.92;13.52;;;;;;;;;;5000635;28;20872;-59
2023/09/05 03:34:03;;;;;;;31.55;13.00;;;;;;;;;;5004100;28;20053;-63
2023/09/05 03:36:50;;;;;;;33.13;14.45;;;;;;;;;;5003729;28;20139;-62
2023/09/05 03:39:44;;;;;;;37.22;14.82;;;;;;;;;;4999774;28;20120;-62
2023/09/05 03:42:38;;;;;;;34.25;14.50;;;;;;;;;;4996453;28;20104;-62
2023/09/05 03:45:27;;;;;;;30.40;14.15;;;;;;;;;;5000099;28;20474;-62
2023/09/05 03:48:20;;;;;;;37.08;15.45;;;;;;;;;;5000139;28;20057;-57
2023/09/05 03:51:13;;;;;;;31.58;13.82;;;;;;;;;;4999507;28;20049;-50
2023/09/05 03:54:01;;;;;;;35.30;14.65;;;;;;;;;;5002818;28;20053;-60
2023/09/05 03:56:56;;;;;;;33.50;14.32;;;;;;;;;;5000120;28;20062;-60
2023/09/05 03:59:49;;;;;;;34.95;14.65;;;;;;;;;;5006025;28;20136;-60
2023/09/05 04:02:43;;;;;;;34.85;15.02;;;;;;;;;;5005026;28;20058;-60
2023/09/05 04:05:32;;;;;;;28.88;14.90;;;;;;;;;;5002319;28;20061;-60
2023/09/05 04:08:26;;;;;;;29.23;15.48;;;;;;;;;;5005290;28;20107;-62
2023/09/05 04:11:13;;;;;;;29.35;14.23;;;;;;;;;;5006115;28;20057;-59
2023/09/05 04:14:07;;;;;;;28.67;14.15;;;;;;;;;;5006415;28;20058;-58
2023/09/05 04:16:54;;;;;;;35.33;15.27;;;;;;;;;;5002963;28;20593;-59
2023/09/05 04:19:52;;;;;;;35.08;13.45;;;;;;;;;;5001541;28;20105;-59
2023/09/05 04:22:39;;;;;;;28.40;14.35;;;;;;;;;;5008297;28;20045;-59
2023/09/05 04:25:40;;;;;;;26.75;13.65;;;;;;;;;;5002317;28;20061;-60
2023/09/05 04:28:20;;;;;;;36.90;15.13;;;;;;;;;;4999633;28;20542;-60
2023/09/05 04:31:18;;;;;;;29.95;14.52;;;;;;;;;;5004254;28;20054;-60
2023/09/05 04:34:08;;;;;;;33.67;15.43;;;;;;;;;;5003883;28;20100;-60
2023/09/05 04:37:02;;;;;;;35.70;15.23;;;;;;;;;;5005222;28;20100;-61
2023/09/05 04:39:49;;;;;;;37.40;15.63;;;;;;;;;;5006174;28;20140;-59
2023/09/05 04:42:43;;;;;;;36.17;15.25;;;;;;;;;;5000622;28;20375;-59
2023/09/05 04:45:37;;;;;;;38.00;15.82;;;;;;;;;;5006235;28;20493;-59
2023/09/05 04:48:25;;;;;;;40.55;14.98;;;;;;;;;;5004746;28;20050;-60
2023/09/05 04:51:19;;;;;;;42.80;18.13;;;;;;;;;;5006387;28;20056;-59
2023/09/05 04:54:07;;;;;;;36.00;15.88;;;;;;;;;;5003450;28;20061;-57
2023/09/05 04:57:02;;;;;;;36.38;16.67;;;;;;;;;;5004617;28;20050;-57
2023/09/05 04:59:57;;;;;;;39.25;16.63;;;;;;;;;;5007685;28;20046;-56
2023/09/05 05:02:48;;;;;;;31.58;16.13;;;;;;;;;;5007566;28;20124;-56
2023/09/05 05:05:36;;;;;;;35.75;18.58;;;;;;;;;;5007300;28;20464;-61
2023/09/05 05:08:30;;;;;;;33.60;18.08;;;;;;;;;;4987416;28;22048;-56
2023/09/05 05:10:58;;;;;;;43.13;18.88;;;;;;;;;;4995720;28;20064;-55
2023/09/05 05:13:25;;;;;;;43.78;19.38;;;;;;;;;;5008194;28;20053;-57
2023/09/05 05:15:59;;;;;;;35.13;17.60;;;;;;;;;;5005988;28;20506;-57
2023/09/05 05:18:26;;;;;;;44.20;20.10;;;;;;;;;;5008869;28;20050;-54
2023/09/05 05:21:00;;;;;;;41.75;18.83;;;;;;;;;;5008640;28;20054;-57
2023/09/05 05:23:27;;;;;;;44.65;20.10;;;;;;;;;;5009218;28;20067;-59
2023/09/05 05:25:58;;;;;;;42.17;18.65;;;;;;;;;;5004878;28;20128;-59
2023/09/05 05:28:32;;;;;;;33.63;18.77;;;;;;;;;;5006403;28;20057;-58
2023/09/05 05:30:59;;;;;;;46.85;19.05;;;;;;;;;;5009107;28;20506;-59
2023/09/05 05:33:33;;;;;;;34.97;19.85;;;;;;;;;;5005293;28;20471;-61
2023/09/05 05:36:21;;;;;;;36.20;18.83;;;;;;;;;;5007564;28;20116;-59
2023/09/05 05:39:14;;;;;;;33.72;18.15;;;;;;;;;;5004544;28;20113;-59
2023/09/05 05:42:01;;;;;;;33.60;18.33;;;;;;;;;;5008861;28;20073;-58
2023/09/05 05:44:55;;;;;;;32.97;18.83;;;;;;;;;;5004036;28;20058;-59
2023/09/05 05:47:42;;;;;;;40.20;19.08;;;;;;;;;;5005151;28;20054;-59
2023/09/05 05:50:36;;;;;;;36.17;18.70;;;;;;;;;;5006468;28;20058;-63
2023/09/05 05:53:24;;;;;;;37.25;19.75;;;;;;;;;;5006348;28;20461;-62
2023/09/05 05:56:17;;;;;;;33.15;17.95;;;;;;;;;;5004783;28;20093;-62
2023/09/05 05:59:10;;;;;;;36.85;17.17;;;;;;;;;;5009790;28;20068;-62
2023/09/05 06:02:05;;;;;;;33.17;16.70;;;;;;;;;;5025922;28;20120;-55
2023/09/05 06:04:51;;;;;;;30.02;16.45;;;;;;;;;;5024346;28;20057;-50
2023/09/05 06:07:45;;;;;;;27.30;16.27;;;;;;;;;;5025254;28;20054;-51
2023/09/05 06:10:32;;;;;;;31.98;16.73;;;;;;;;;;5024204;28;20088;-51
2023/09/05 06:13:26;;;;;;;36.92;15.02;;;;;;;;;;5025150;28;20049;-50
2023/09/05 06:16:13;;;;;;;26.27;14.50;;;;;;;;;;5020758;28;20104;-49
2023/09/05 06:19:08;;;;;;;33.88;15.40;;;;;;;;;;5023481;28;20041;-60
2023/09/05 06:22:01;;;;;;;30.75;15.80;;;;;;;;;;5023175;28;20049;-60
2023/09/05 06:24:48;;;;;;;28.48;15.25;;;;;;;;;;5023816;28;20056;-61
2023/09/05 06:27:43;;;;;;;30.45;14.32;;;;;;;;;;5026575;28;20457;-60
2023/09/05 06:30:29;;;;;;;26.25;14.15;;;;;;;;;;5025277;28;20505;-58
2023/09/05 06:33:23;;;;;;;27.90;15.32;;;;;;;;;;5025598;28;20058;-58
2023/09/05 06:36:11;;;;;;;26.95;13.15;;;;;;;;;;5024531;28;20057;-58
2023/09/05 06:39:07;;;;;;;33.58;14.10;;;;;;;;;;5025617;28;20057;-58
2023/09/05 06:41:54;;;;;;;29.98;13.27;;;;;;;;;;5025212;28;20057;-58
2023/09/05 06:44:48;;;;;;;25.65;12.48;;;;;;;;;;5019148;28;20128;-58
2023/09/05 06:47:36;;;;;;;23.50;11.88;;;;;;;;;;5025375;28;20049;-48
2023/09/05 06:50:30;;;;;;;24.08;11.63;;;;;;;;;;5021715;28;20056;-52
2023/09/05 06:53:17;;;;;;;27.55;14.00;;;;;;;;;;5028191;28;20045;-49
2023/09/05 06:56:11;;;;;;;31.65;12.88;;;;;;;;;;5023177;28;20722;-50
2023/09/05 06:59:17;;;;;;;27.08;12.50;;;;;;;;;;5022836;28;20126;-47
2023/09/05 07:01:59;;;;;;;32.38;12.15;;;;;;;;;;5020053;28;20458;-59
2023/09/05 07:04:46;;;;;;;23.92;12.77;;;;;;;;;;5024936;28;20052;-58
2023/09/05 07:07:40;;;;;;;25.33;12.23;;;;;;;;;;5023130;28;21366;-59
2023/09/05 07:10:28;;;;;;;22.00;10.77;;;;;;;;;;5022805;28;20048;-59
2023/09/05 07:13:21;;;;;;;18.52;11.65;;;;;;;;;;5022450;28;20065;-59
2023/09/05 07:16:08;;;;;;;22.77;11.75;;;;;;;;;;5026914;28;20107;-61
2023/09/05 07:19:02;;;;;;;21.65;10.70;;;;;;;;;;5021036;28;20045;-62
2023/09/05 07:21:50;;;;;;;23.08;11.02;;;;;;;;;;5024979;28;20656;-62
2023/09/05 07:24:43;;;;;;;28.05;11.02;;;;;;;;;;5014074;28;20524;-61
2023/09/05 07:27:30;;;;;;;22.33;11.52;;;;;;;;;;5018987;28;20096;-61
2023/09/05 07:30:24;;;;;;;21.33;9.60;;;;;;;;;;5022645;28;20460;-59
2023/09/05 07:33:18;;;;;;;18.55;10.90;;;;;;;;;;5023820;28;20859;-59
2023/09/05 07:36:12;;;;;;;21.67;11.80;;;;;;;;;;5029685;28;20056;-59
2023/09/05 07:39:01;;;;;;;17.77;10.48;;;;;;;;;;5031318;28;20099;-59
2023/09/05 07:41:53;;;;;;;20.55;10.75;;;;;;;;;;5026945;28;20096;-59
2023/09/05 07:44:40;;;;;;;17.60;10.63;;;;;;;;;;5005009;28;20675;-62
2023/09/05 07:47:35;;;;;;;21.65;11.38;;;;;;;;;;5015809;28;20050;-61
2023/09/05 07:50:23;;;;;;;19.38;10.52;;;;;;;;;;5028334;28;20089;-62
2023/09/05 07:53:18;;;;;;;20.73;11.40;;;;;;;;;;5018703;28;20159;-62
2023/09/05 07:56:07;;;;;;;18.42;10.00;;;;;;;;;;5025667;28;20053;-59
2023/09/05 07:59:07;;;;;;;20.05;9.75;;;;;;;;;;5011207;28;20124;-48
2023/09/05 08:01:34;;;;;;;17.27;9.90;;;;;;;;;;5007373;28;20510;-48
2023/09/05 08:04:08;;;;;;;19.13;10.05;;;;;;;;;;5006333;28;20086;-46
2023/09/05 08:06:35;;;;;;;22.15;9.65;;;;;;;;;;5009409;28;20049;-52
2023/09/05 08:09:02;;;;;;;15.18;9.50;;;;;;;;;;5005546;28;20514;-52
2023/09/05 08:11:37;;;;;;;21.83;9.07;;;;;;;;;;5010870;28;20497;-51
2023/09/05 08:14:04;;;;;;;17.80;8.68;;;;;;;;;;5009514;28;20050;-50
2023/09/05 08:16:31;;;;;;;16.25;8.70;;;;;;;;;;5007367;28;20068;-51
2023/09/05 08:19:05;;;;;;;17.63;7.50;;;;;;;;;;5008919;28;20054;-51
2023/09/05 08:21:33;;;;;;;;;;;;;;;;;;5008016;28;20069;-53
2023/09/05 08:24:09;;;;;;;20.08;8.23;;;;;;;;;;5006455;28;19925;-52
2023/09/05 08:26:37;;;;;;;19.63;8.60;;;;;;;;;;5009012;28;20061;-58
2023/09/05 08:29:05;;;;;;;18.45;7.78;;;;;;;;;;5010131;28;20058;-57
2023/09/05 08:31:59;;;;;;;16.27;7.05;;;;;;;;;;5005439;28;20521;-58
2023/09/05 08:34:53;;;;;;;14.57;6.40;;;;;;;;;;5005586;28;20140;-58
2023/09/05 08:37:40;;;;;;;19.10;7.45;;;;;;;;;;5003795;28;20050;-59
2023/09/05 08:40:34;;;;;;;14.93;6.70;;;;;;;;;;5008520;28;20045;-59
2023/09/05 08:43:21;;;;;;;14.23;7.03;;;;;;;;;;5009549;28;20058;-50
2023/09/05 08:46:15;;;;;;;17.25;6.68;;;;;;;;;;5007813;28;20109;-49
2023/09/05 08:49:09;;;;;;;14.68;6.68;;;;;;;;;;5009825;28;20050;-48
2023/09/05 08:52:04;;;;;;;19.90;7.38;;;;;;;;;;5004616;28;20042;-56
2023/09/05 08:54:51;;;;;;;16.48;6.75;;;;;;;;;;5003812;28;20054;-61
2023/09/05 08:57:47;;;;;;;14.27;6.82;;;;;;;;;;5007638;28;20049;-61
2023/09/05 09:00:47;;;;;;;12.63;6.97;;;;;;;;;;5007658;28;20049;-61
2023/09/05 09:03:41;;;;;;;15.50;6.65;;;;;;;;;;5006889;28;20050;-61
2023/09/05 09:06:29;;;;;;;12.45;6.90;;;;;;;;;;5004278;28;20434;-62
2023/09/05 09:09:48;;;;;;;16.45;6.63;;;;;;;;;;5004931;28;20144;-49
2023/09/05 09:12:42;;;;;;;13.52;6.78;;;;;;;;;;5006682;28;20056;-47
2023/09/05 09:15:41;;;;;;;14.20;7.13;;;;;;;;;;5004983;28;20411;-50
2023/09/05 09:18:34;;;;;;;22.17;7.03;;;;;;;;;;5006503;28;20046;-48
2023/09/05 09:21:30;;;;;;;19.70;7.15;;;;;;;;;;5005522;28;20076;-60
2023/09/05 09:24:25;;;;;;;19.27;7.50;;;;;;;;;;5005259;28;20121;-52
2023/09/05 09:27:11;;;;;;;18.85;7.50;;;;;;;;;;5005629;28;20049;-48
2023/09/05 09:30:09;;;;;;;13.63;7.20;;;;;;;;;;5003811;28;20045;-49
2023/09/05 09:32:56;;;;;;;13.25;6.15;;;;;;;;;;5004356;28;20061;-52
2023/09/05 09:36:09;;;;;;;10.77;5.65;;;;;;;;;;5004847;28;20056;-50
2023/09/05 09:38:56;;;;;;;16.38;6.55;;;;;;;;;;5004154;28;20477;-60
2023/09/05 09:41:50;;;;;;;16.15;7.28;;;;;;;;;;5005253;28;20148;-60
2023/09/05 09:44:38;;;;;;;14.30;6.63;;;;;;;;;;4999530;28;20073;-60
2023/09/05 09:47:32;;;;;;;16.48;6.20;;;;;;;;;;4997451;28;20107;-60
2023/09/05 09:50:19;;;;;;;14.40;5.78;;;;;;;;;;5004415;28;20058;-48
2023/09/05 09:53:15;;;;;;;12.48;5.70;;;;;;;;;;5002339;28;20115;-58
2023/09/05 09:56:02;;;;;;;13.02;5.55;;;;;;;;;;5004634;28;20482;-57
2023/09/05 09:59:10;;;;;;;12.35;5.35;;;;;;;;;;5006355;28;20058;-57
2023/09/05 10:02:07;;;;;;;13.60;5.43;;;;;;;;;;5006088;28;20141;-56
2023/09/05 10:05:00;;;;;;;14.25;4.93;;;;;;;;;;4985542;28;20058;-56
2023/09/05 10:07:47;;;;;;;12.13;5.10;;;;;;;;;;5000380;28;20473;-61
2023/09/05 10:10:21;;;;;;;17.75;5.22;;;;;;;;;;5006386;28;20446;-61
2023/09/05 10:12:49;;;;;;;8.15;4.90;;;;;;;;;;5004369;28;20054;-61
2023/09/05 10:15:18;;;;;;;14.18;5.22;;;;;;;;;;5002956;28;20667;-62
2023/09/05 10:17:54;;;;;;;15.55;4.80;;;;;;;;;;5007283;28;20416;-58
2023/09/05 10:20:21;;;;;;;11.48;5.03;;;;;;;;;;5003880;28;20049;-61
2023/09/05 10:22:55;;;;;;;10.77;4.10;;;;;;;;;;5005249;28;20050;-63
2023/09/05 10:25:23;;;;;;;12.40;4.43;;;;;;;;;;5005160;28;20395;-61
2023/09/05 10:27:50;;;;;;;10.40;4.20;;;;;;;;;;5006534;28;20431;-61
2023/09/05 10:30:24;;;;;;;10.02;4.30;;;;;;;;;;5002331;28;20061;-62
2023/09/05 10:32:53;;;;;;;9.80;4.32;;;;;;;;;;5002845;28;20451;-61
2023/09/05 10:35:31;;;;;;;12.10;4.25;;;;;;;;;;5003882;28;20053;-61
2023/09/05 10:38:04;;;;;;;6.93;4.05;;;;;;;;;;4999779;28;20061;-61
2023/09/05 10:40:39;;;;;;;11.18;4.70;;;;;;;;;;5001963;28;20942;-61
2023/09/05 10:43:08;;;;;;;10.75;4.70;;;;;;;;;;5002346;28;20054;-61
2023/09/05 10:45:36;;;;;;;7.80;4.15;;;;;;;;;;4997159;28;20054;-62
2023/09/05 10:48:31;;;;;;;11.00;4.88;;;;;;;;;;4998032;28;20045;-60
2023/09/05 10:51:06;;;;;;;14.05;4.15;;;;;;;;;;5001827;28;20065;-61
2023/09/05 10:53:41;;;;;;;14.50;5.20;;;;;;;;;;5004342;28;20046;-62
2023/09/05 10:56:27;;;;;;;10.15;4.22;;;;;;;;;;4983313;28;20056;-60
2023/09/05 10:59:31;;;;;;;15.60;4.47;;;;;;;;;;5004298;28;20533;-61
2023/09/05 11:02:06;;;;;;;9.73;4.47;;;;;;;;;;5003406;28;20395;-60
2023/09/05 11:04:44;;;;;;;11.98;4.72;;;;;;;;;;5005401;28;20100;-54
2023/09/05 11:07:13;;;;;;;10.15;4.57;;;;;;;;;;5003983;28;20061;-49
2023/09/05 11:09:49;;;;;;;9.50;4.65;;;;;;;;;;5003624;28;20053;-52
2023/09/05 11:12:19;;;;;;;9.82;4.68;;;;;;;;;;5001213;28;20058;-53
2023/09/05 11:14:54;;;;;;;15.93;4.90;;;;;;;;;;5002444;28;20053;-60
2023/09/05 11:17:21;;;;;;;12.02;4.85;;;;;;;;;;5003074;28;20054;-61
2023/09/05 11:20:18;;;;;;;15.52;4.57;;;;;;;;;;5002928;28;20050;-61
2023/09/05 11:23:10;;;;;;;12.63;4.80;;;;;;;;;;5003450;28;20097;-61
2023/09/05 11:26:06;;;;;;;9.57;4.75;;;;;;;;;;5005321;28;20510;-61
2023/09/05 11:28:57;;;;;;;15.68;5.32;;;;;;;;;;5002400;28;20108;-61
2023/09/05 11:31:44;;;;;;;8.77;4.57;;;;;;;;;;5004427;28;20046;-56
2023/09/05 11:34:38;;;;;;;12.52;4.25;;;;;;;;;;5001350;28;20465;-57
2023/09/05 11:37:28;;;;;;;9.25;4.47;;;;;;;;;;5002472;28;20074;-58
2023/09/05 11:40:25;;;;;;;14.13;5.00;;;;;;;;;;5000349;28;20136;-57
2023/09/05 11:43:07;;;;;;;7.15;4.13;;;;;;;;;;5002713;28;20494;-60
2023/09/05 11:46:01;;;;;;;9.35;4.90;;;;;;;;;;5002332;28;20833;-45
2023/09/05 11:48:49;;;;;;;13.27;4.90;;;;;;;;;;5006925;28;20421;-46
2023/09/05 11:51:43;;;;;;;14.38;4.68;;;;;;;;;;5003014;28;20053;-52
2023/09/05 11:54:37;;;;;;;13.25;4.88;;;;;;;;;;5002495;28;20136;-46
2023/09/05 11:57:24;;;;;;;14.65;5.40;;;;;;;;;;5003275;28;20054;-50
2023/09/05 12:00:25;;;;;;;16.80;4.85;;;;;;;;;;5004491;28;20596;-49
2023/09/05 12:03:15;;;;;;;9.63;4.78;;;;;;;;;;5003784;28;20429;-48
2023/09/05 12:06:08;;;;;;;13.60;4.97;;;;;;;;;;5002050;28;20037;-53
2023/09/05 12:08:53;;;;;;;16.27;4.47;;;;;;;;;;5003659;28;20584;-51
2023/09/05 12:11:48;;;;;;;20.67;6.00;;;;;;;;;;5004268;28;20057;-60
2023/09/05 12:14:52;;;;;;;13.65;5.50;;;;;;;;;;5000752;28;20467;-53
2023/09/05 12:17:48;;;;;;;10.05;5.10;;;;;;;;;;5001162;28;20057;-51
2023/09/05 12:20:33;;;;;;;15.18;6.07;;;;;;;;;;5002217;28;20210;-54
2023/09/05 12:23:27;;;;;;;16.17;5.38;;;;;;;;;;5006065;28;20054;-53
2023/09/05 12:26:21;;;;;;;11.23;5.22;;;;;;;;;;5006189;28;20069;-52
2023/09/05 12:29:08;;;;;;;16.67;5.68;;;;;;;;;;5008207;28;20559;-61
2023/09/05 12:32:02;;;;;;;16.25;5.13;;;;;;;;;;5004825;28;20092;-61
2023/09/05 12:34:56;;;;;;;14.82;5.05;;;;;;;;;;5004018;28;20112;-61
2023/09/05 12:37:43;;;;;;;12.98;4.90;;;;;;;;;;5006595;28;20106;-61
2023/09/05 12:40:37;;;;;;;10.90;4.90;;;;;;;;;;5003265;28;20049;-53
2023/09/05 12:43:25;;;;;;;13.75;4.72;;;;;;;;;;5008455;28;20149;-62
2023/09/05 12:46:19;;;;;;;12.73;4.90;;;;;;;;;;5006011;28;20112;-61
2023/09/05 12:49:06;;;;;;;11.50;4.60;;;;;;;;;;5005891;28;20046;-62
2023/09/05 12:52:00;;;;;;;15.52;5.00;;;;;;;;;;4999778;28;20411;-62
2023/09/05 12:54:51;;;;;;;16.85;4.90;;;;;;;;;;5001194;28;20057;-62
2023/09/05 12:57:48;;;;;;;9.50;4.75;;;;;;;;;;5009000;28;20050;-52
2023/09/05 13:00:42;;;;;;;10.73;4.90;;;;;;;;;;4993018;28;20132;-51
2023/09/05 13:03:36;;;;;;;15.18;5.25;;;;;;;;;;5002068;28;20054;-51
2023/09/05 13:06:24;;;;;;;15.47;5.20;;;;;;;;;;5006252;28;20414;-51
2023/09/05 13:09:25;;;;;;;16.48;5.25;;;;;;;;;;5010118;28;20124;-51
2023/09/05 13:12:12;;;;;;;16.38;5.38;;;;;;;;;;5007221;28;20514;-57
2023/09/05 13:15:06;;;;;;;13.57;5.28;;;;;;;;;;5005303;28;20103;-57
2023/09/05 13:17:54;;;;;;;11.30;5.70;;;;;;;;;;5005768;28;20414;-57
2023/09/05 13:20:47;;;;;;;13.68;5.90;;;;;;;;;;5004529;28;20060;-57
2023/09/05 13:23:34;;;;;;;16.92;5.75;;;;;;;;;;5004725;28;20052;-58
2023/09/05 13:26:29;;;;;;;12.27;5.15;;;;;;;;;;5004778;28;20787;-61
2023/09/05 13:29:15;;;;;;;14.45;5.38;;;;;;;;;;5006456;28;20160;-61
2023/09/05 13:32:10;;;;;;;17.83;5.63;;;;;;;;;;5001460;28;20056;-60
2023/09/05 13:34:57;;;;;;;12.57;5.40;;;;;;;;;;5005620;28;20421;-60
2023/09/05 13:37:51;;;;;;;14.60;4.80;;;;;;;;;;5002321;28;20050;-59
2023/09/05 13:40:38;;;;;;;12.52;5.00;;;;;;;;;;5004696;28;20051;-61
2023/09/05 13:43:32;;;;;;;12.60;5.10;;;;;;;;;;5004310;28;20154;-61
2023/09/05 13:46:19;;;;;;;14.25;5.63;;;;;;;;;;5004114;28;20555;-61
2023/09/05 13:49:13;;;;;;;16.98;5.40;;;;;;;;;;5005018;28;20612;-61
2023/09/05 13:52:00;;;;;;;12.15;5.18;;;;;;;;;;5003833;28;20058;-61
2023/09/05 13:54:54;;;;;;;14.95;5.35;;;;;;;;;;5005636;28;20050;-51
2023/09/05 13:57:49;;;;;;;14.27;5.05;;;;;;;;;;5005681;28;20060;-53
2023/09/05 14:00:35;;;;;;;12.20;4.88;;;;;;;;;;4992233;28;20081;-53
2023/09/05 14:03:44;;;;;;;12.75;5.25;;;;;;;;;;4997983;28;20045;-51
2023/09/05 14:06:46;;;;;;;11.80;5.10;;;;;;;;;;5004003;28;20081;-57
2023/09/05 14:09:38;;;;;;;12.85;4.97;;;;;;;;;;5003611;28;20053;-53
2023/09/05 14:12:25;;;;;;;16.13;5.20;;;;;;;;;;5001952;28;20054;-52
2023/09/05 14:15:21;;;;;;;14.30;6.43;;;;;;;;;;5006838;28;20398;-53
2023/09/05 14:18:07;;;;;;;9.48;4.93;;;;;;;;;;5006812;28;20050;-53
2023/09/05 14:21:01;;;;;;;16.13;5.80;;;;;;;;;;5003663;28;20053;-48
2023/09/05 14:23:48;;;;;;;17.27;5.97;;;;;;;;;;5004419;28;20052;-58
2023/09/05 14:26:42;;;;;;;13.25;5.75;;;;;;;;;;5001789;28;20552;-56
2023/09/05 14:29:30;;;;;;;16.70;5.97;;;;;;;;;;5003687;28;20146;-58
2023/09/05 14:32:23;;;;;;;16.42;7.07;;;;;;;;;;5001558;28;20054;-60
2023/09/05 14:35:17;;;;;;;18.83;6.78;;;;;;;;;;5005683;28;21143;-61
2023/09/05 14:38:04;;;;;;;16.65;6.25;;;;;;;;;;5002174;28;20050;-60
2023/09/05 14:40:58;;;;;;;18.92;6.38;;;;;;;;;;5002880;28;20053;-61
2023/09/05 14:43:46;;;;;;;14.65;6.35;;;;;;;;;;5003450;28;20045;-61
2023/09/05 14:46:39;;;;;;;12.77;5.47;;;;;;;;;;5003461;28;20053;-60
2023/09/05 14:49:26;;;;;;;14.98;6.57;;;;;;;;;;5004371;28;20061;-61
2023/09/05 14:52:20;;;;;;;14.43;6.13;;;;;;;;;;5004148;28;20058;-61
2023/09/05 14:55:09;;;;;;;14.43;6.38;;;;;;;;;;5002544;28;20519;-61
2023/09/05 14:58:02;;;;;;;16.50;7.25;;;;;;;;;;5005872;28;20069;-61
2023/09/05 15:00:56;;;;;;;14.68;6.53;;;;;;;;;;5015250;28;20100;-61
2023/09/05 15:03:49;;;;;;;12.38;6.50;;;;;;;;;;5021111;28;20052;-61
2023/09/05 15:06:17;;;;;;;;;;;;;;;;;;5025707;28;20061;-60
2023/09/05 15:08:45;;;;;;;13.30;6.35;;;;;;;;;;5023078;28;20394;-59
2023/09/05 15:11:19;;;;;;;16.77;6.85;;;;;;;;;;5017368;28;20052;-60
2023/09/05 15:13:46;;;;;;;19.85;7.57;;;;;;;;;;5024914;28;20139;-61
2023/09/05 15:16:23;;;;;;;22.33;7.78;;;;;;;;;;5020333;28;20053;-61
2023/09/05 15:18:50;;;;;;;19.83;7.25;;;;;;;;;;5024951;28;20052;-60
2023/09/05 15:21:18;;;;;;;18.23;8.63;;;;;;;;;;5023219;28;20053;-60
2023/09/05 15:23:51;;;;;;;20.35;8.13;;;;;;;;;;5022592;28;20115;-60
2023/09/05 15:26:19;;;;;;;18.35;8.73;;;;;;;;;;5020504;28;20082;-60
2023/09/05 15:28:46;;;;;;;18.98;8.20;;;;;;;;;;5020728;28;20166;-60
2023/09/05 15:31:20;;;;;;;19.00;8.63;;;;;;;;;;5020752;28;20067;-60
2023/09/05 15:33:48;;;;;;;;;;;;;;;;;;5025409;28;20486;-57
2023/09/05 15:36:15;;;;;;;16.05;8.23;;;;;;;;;;5025564;28;19960;-58
2023/09/05 15:38:50;;;;;;;17.58;8.57;;;;;;;;;;5022787;28;20085;-58
2023/09/05 15:41:17;;;;;;;21.73;9.23;;;;;;;;;;5022484;28;20516;-58
2023/09/05 15:43:44;;;;;;;18.90;8.20;;;;;;;;;;5021852;28;20117;-59
2023/09/05 15:46:19;;;;;;;17.10;8.88;;;;;;;;;;5019506;28;20068;-59
2023/09/05 15:48:46;;;;;;;17.27;8.90;;;;;;;;;;5023365;28;20065;-60
2023/09/05 15:51:13;;;;;;;16.05;9.23;;;;;;;;;;5019427;28;20500;-60
2023/09/05 15:53:47;;;;;;;15.48;8.20;;;;;;;;;;5016576;28;20053;-60
2023/09/05 15:56:14;;;;;;;;;;;;;;;;;;5007422;28;20053;-60
2023/09/05 15:59:15;;;;;;;21.75;8.38;;;;;;;;;;5009109;28;20016;-64
2023/09/05 16:02:12;;;;;;;18.63;8.10;;;;;;;;;;4995103;28;20461;-51
2023/09/05 16:05:07;;;;;;;15.88;7.57;;;;;;;;;;5001770;28;20058;-48
2023/09/05 16:07:54;;;;;;;19.70;7.97;;;;;;;;;;5006502;28;20056;-51
2023/09/05 16:10:51;;;;;;;14.45;7.93;;;;;;;;;;5002330;28;20933;-50
2023/09/05 16:13:39;;;;;;;17.40;8.20;;;;;;;;;;5007282;28;20105;-53
2023/09/05 16:16:33;;;;;;;17.63;8.20;;;;;;;;;;5002514;28;20057;-61
2023/09/05 16:19:20;;;;;;;20.17;8.52;;;;;;;;;;5004189;28;20173;-61
2023/09/05 16:22:14;;;;;;;21.35;8.77;;;;;;;;;;5006741;28;20061;-61
2023/09/05 16:25:02;;;;;;;23.80;8.95;;;;;;;;;;5005267;28;20398;-61